^^
Grace C. Lehan Memorial Weather Station Historical Data
Daily Summary for July 9, 2022 Units:  Both    English   Metric
Daily Weekly Monthly Yearly
  High: Low: Average:
Temperature: 83.2 °F /  28.4 °C 54.6 °F /  12.6 °C 67.2 °F /  19.6 °C
Dew Point: 63 °F /  17.2 °C 52.7 °F /  11.5 °C 57.5 °F /  14.2 °C
Humidity: 94% 43.5% 74%
Wind Speed: 2.2mph /  3.5km/h - 0.1mph /  0.2km/h
Wind Gust: 7mph /  11.3km/h - -
Wind- - SSE
Pressure: 30.12 in /  1019.9 hPa 29.93 in /  1013.4 hPa -
Precipitation: 0.00 in /  0 mm    
 
 
Tabular Data for July 9, 2022
Time Temperature Dew Point Pressure Wind Wind Speed Wind Gust Humidity Rainfall Rate (Hourly) solar
00:00 61.1 °F /  16.2 °C 55.6 °F /  13.1 °C 29.93in /  1013.4hPa Calm     82% 0.00in /  0mm 0 W/m2
00:09 61 °F /  16.1 °C 55.5 °F /  13.1 °C 29.93in /  1013.4hPa Calm     82% 0.00in /  0mm 0 W/m2
00:14 60.9 °F /  16.1 °C 55.4 °F /  13 °C 29.93in /  1013.4hPa Calm     82% 0.00in /  0mm 0 W/m2
00:19 60.8 °F /  16 °C 55.3 °F /  12.9 °C 29.93in /  1013.4hPa Calm     82% 0.00in /  0mm 0 W/m2
00:24 60.7 °F /  15.9 °C 55.2 °F /  12.9 °C 29.93in /  1013.4hPa Calm     82% 0.00in /  0mm 0 W/m2
00:29 60.6 °F /  15.9 °C 55.3 °F /  12.9 °C 29.93in /  1013.4hPa Calm     82.6% 0.00in /  0mm 0 W/m2
00:34 60.5 °F /  15.8 °C 55.3 °F /  12.9 °C 29.94in /  1013.8hPa Calm     83% 0.00in /  0mm 0 W/m2
00:39 60.4 °F /  15.8 °C 55.2 °F /  12.9 °C 29.94in /  1013.8hPa Calm     83% 0.00in /  0mm 0 W/m2
00:44 60.3 °F /  15.7 °C 55.1 °F /  12.8 °C 29.94in /  1013.8hPa Calm     83% 0.00in /  0mm 0 W/m2
00:49 60.2 °F /  15.7 °C 55.4 °F /  13 °C 29.94in /  1013.8hPa Calm     84% 0.00in /  0mm 0 W/m2
00:54 60.1 °F /  15.6 °C 55.3 °F /  12.9 °C 29.94in /  1013.8hPa Calm     84% 0.00in /  0mm 0 W/m2
00:59 60 °F /  15.6 °C 55.2 °F /  12.9 °C 29.94in /  1013.8hPa Calm     84% 0.00in /  0mm 0 W/m2
01:04 59.9 °F /  15.5 °C 55 °F /  12.8 °C 29.94in /  1013.8hPa Calm     84% 0.00in /  0mm 0 W/m2
01:09 59.8 °F /  15.4 °C 54.9 °F /  12.7 °C 29.94in /  1013.8hPa Calm     84% 0.00in /  0mm 0 W/m2
01:14 59.7 °F /  15.4 °C 55.1 °F /  12.8 °C 29.94in /  1013.8hPa Calm     84.9% 0.00in /  0mm 0 W/m2
01:19 59.6 °F /  15.3 °C 55.1 °F /  12.8 °C 29.94in /  1013.8hPa Calm     85% 0.00in /  0mm 0 W/m2
01:24 59.4 °F /  15.2 °C 54.9 °F /  12.7 °C 29.94in /  1013.8hPa Calm     85% 0.00in /  0mm 0 W/m2
01:29 59.3 °F /  15.2 °C 55 °F /  12.8 °C 29.94in /  1013.8hPa Calm     85.6% 0.00in /  0mm 0 W/m2
01:34 59.2 °F /  15.1 °C 55 °F /  12.8 °C 29.94in /  1013.8hPa Calm     86% 0.00in /  0mm 0 W/m2
01:39 59.1 °F /  15.1 °C 54.9 °F /  12.7 °C 29.95in /  1014.1hPa Calm     86% 0.00in /  0mm 0 W/m2
01:44 59 °F /  15 °C 54.8 °F /  12.7 °C 29.95in /  1014.1hPa Calm     86% 0.00in /  0mm 0 W/m2
01:49 58.8 °F /  14.9 °C 54.6 °F /  12.6 °C 29.95in /  1014.1hPa Calm     86% 0.00in /  0mm 0 W/m2
01:54 58.7 °F /  14.8 °C 54.5 °F /  12.5 °C 29.95in /  1014.1hPa Calm     86% 0.00in /  0mm 0 W/m2
01:59 58.5 °F /  14.7 °C 54.7 °F /  12.6 °C 29.95in /  1014.1hPa Calm     87% 0.00in /  0mm 0 W/m2
02:04 58.5 °F /  14.7 °C 54.8 °F /  12.7 °C 29.95in /  1014.1hPa Calm     87.4% 0.00in /  0mm 0 W/m2
02:09 58.4 °F /  14.7 °C 54.9 °F /  12.7 °C 29.96in /  1014.4hPa Calm     88% 0.00in /  0mm 0 W/m2
02:14 58.3 °F /  14.6 °C 54.8 °F /  12.7 °C 29.96in /  1014.4hPa Calm     88% 0.00in /  0mm 0 W/m2
02:19 58.2 °F /  14.6 °C 54.7 °F /  12.6 °C 29.96in /  1014.4hPa Calm     88% 0.00in /  0mm 0 W/m2
02:24 58.1 °F /  14.5 °C 54.7 °F /  12.6 °C 29.96in /  1014.4hPa Calm     88.5% 0.00in /  0mm 0 W/m2
02:29 58 °F /  14.4 °C 54.7 °F /  12.6 °C 29.96in /  1014.4hPa Calm     88.9% 0.00in /  0mm 0 W/m2
02:34 57.9 °F /  14.4 °C 54.6 °F /  12.6 °C 29.96in /  1014.4hPa Calm     89% 0.00in /  0mm 0 W/m2
02:39 57.7 °F /  14.3 °C 54.5 °F /  12.5 °C 29.96in /  1014.4hPa Calm     89% 0.00in /  0mm 0 W/m2
02:44 57.7 °F /  14.3 °C 54.6 °F /  12.6 °C 29.96in /  1014.4hPa Calm     89.5% 0.00in /  0mm 0 W/m2
02:49 57.6 °F /  14.2 °C 54.8 °F /  12.7 °C 29.97in /  1014.8hPa Calm     90.6% 0.00in /  0mm 0 W/m2
02:54 57.5 °F /  14.2 °C 54.5 °F /  12.5 °C 29.97in /  1014.8hPa Calm     90% 0.00in /  0mm 0 W/m2
02:59 57.4 °F /  14.1 °C 54.5 °F /  12.5 °C 29.97in /  1014.8hPa Calm     90% 0.00in /  0mm 0 W/m2
03:04 57.3 °F /  14.1 °C 54.4 °F /  12.4 °C 29.97in /  1014.8hPa Calm     90% 0.00in /  0mm 0 W/m2
03:09 57.2 °F /  14 °C 54.3 °F /  12.4 °C 29.97in /  1014.8hPa Calm     90% 0.00in /  0mm 0 W/m2
03:14 57.1 °F /  13.9 °C 54.3 °F /  12.4 °C 29.97in /  1014.8hPa Calm     90.3% 0.00in /  0mm 0 W/m2
03:19 57 °F /  13.9 °C 54.3 °F /  12.4 °C 29.97in /  1014.8hPa Calm     90.4% 0.00in /  0mm 0 W/m2
03:24 57 °F /  13.9 °C 54.4 °F /  12.4 °C 29.97in /  1014.8hPa Calm     91% 0.00in /  0mm 0 W/m2
03:29 56.9 °F /  13.8 °C 54.3 °F /  12.4 °C 29.97in /  1014.8hPa Calm     91% 0.00in /  0mm 0 W/m2
03:34 56.9 °F /  13.8 °C 54.3 °F /  12.4 °C 29.97in /  1014.8hPa Calm     91% 0.00in /  0mm 0 W/m2
03:39 56.8 °F /  13.8 °C 54.2 °F /  12.3 °C 29.97in /  1014.8hPa Calm     91% 0.00in /  0mm 0 W/m2
03:44 56.8 °F /  13.8 °C 54.2 °F /  12.3 °C 29.97in /  1014.8hPa Calm     91% 0.00in /  0mm 0 W/m2
03:49 56.7 °F /  13.7 °C 54.1 °F /  12.3 °C 29.97in /  1014.8hPa Calm     91% 0.00in /  0mm 0 W/m2
03:54 56.6 °F /  13.7 °C 54 °F /  12.2 °C 29.97in /  1014.8hPa Calm     91% 0.00in /  0mm 0 W/m2
03:59 56.6 °F /  13.7 °C 54 °F /  12.2 °C 29.97in /  1014.8hPa Calm     91% 0.00in /  0mm 0 W/m2
04:00 56.6 °F /  13.7 °C 54 °F /  12.2 °C 29.97in /  1014.8hPa Calm     91% 0.00in /  0mm 0 W/m2
04:09 56.6 °F /  13.7 °C 54 °F /  12.2 °C 29.97in /  1014.8hPa Calm     91% 0.00in /  0mm 0 W/m2
04:14 56.5 °F /  13.6 °C 53.9 °F /  12.2 °C 29.98in /  1015.1hPa Calm     91% 0.00in /  0mm 0 W/m2
04:19 56.5 °F /  13.6 °C 53.9 °F /  12.2 °C 29.98in /  1015.1hPa Calm     91% 0.00in /  0mm 0 W/m2
04:24 56.5 °F /  13.6 °C 53.9 °F /  12.2 °C 29.98in /  1015.1hPa Calm     91% 0.00in /  0mm 0 W/m2
04:29 56.4 °F /  13.6 °C 53.8 °F /  12.1 °C 29.98in /  1015.1hPa Calm     91% 0.00in /  0mm 0 W/m2
04:34 56.3 °F /  13.5 °C 53.7 °F /  12.1 °C 29.97in /  1014.8hPa Calm     91% 0.00in /  0mm 0 W/m2
04:39 56.2 °F /  13.4 °C 53.7 °F /  12.1 °C 29.97in /  1014.8hPa Calm     91.4% 0.00in /  0mm 0 W/m2
04:44 56.2 °F /  13.4 °C 53.9 °F /  12.2 °C 29.97in /  1014.8hPa Calm     92% 0.00in /  0mm 0 W/m2
04:49 56.1 °F /  13.4 °C 53.8 °F /  12.1 °C 29.97in /  1014.8hPa Calm     92% 0.00in /  0mm 0 W/m2
04:54 56 °F /  13.3 °C 53.7 °F /  12.1 °C 29.98in /  1015.1hPa Calm     92% 0.00in /  0mm 0 W/m2
04:59 55.9 °F /  13.3 °C 53.6 °F /  12 °C 29.98in /  1015.1hPa Calm     92% 0.00in /  0mm 0 W/m2
05:04 55.8 °F /  13.2 °C 53.5 °F /  11.9 °C 29.98in /  1015.1hPa Calm     92% 0.00in /  0mm 0 W/m2
05:09 55.7 °F /  13.2 °C 53.4 °F /  11.9 °C 29.99in /  1015.5hPa Calm     92% 0.00in /  0mm 0 W/m2
05:14 55.6 °F /  13.1 °C 53.4 °F /  11.9 °C 29.99in /  1015.5hPa Calm     92% 0.00in /  0mm 0 W/m2
05:19 55.6 °F /  13.1 °C 53.3 °F /  11.8 °C 29.99in /  1015.5hPa Calm     92% 0.00in /  0mm 0 W/m2
05:24 55.5 °F /  13.1 °C 53.2 °F /  11.8 °C 29.99in /  1015.5hPa Calm     92% 0.00in /  0mm 0 W/m2
05:29 55.5 °F /  13.1 °C 53.2 °F /  11.8 °C 29.99in /  1015.5hPa Calm     92% 0.00in /  0mm 0 W/m2
05:34 55.4 °F /  13 °C 53.1 °F /  11.7 °C 29.99in /  1015.5hPa Calm     92% 0.00in /  0mm 0 W/m2
05:39 55.3 °F /  12.9 °C 53.1 °F /  11.7 °C 29.99in /  1015.5hPa Calm     92% 0.00in /  0mm 0 W/m2
05:44 55.3 °F /  12.9 °C 53 °F /  11.7 °C 29.99in /  1015.5hPa Calm     92% 0.00in /  0mm 0 W/m2
05:49 55.2 °F /  12.9 °C 52.9 °F /  11.6 °C 29.99in /  1015.5hPa Calm     92% 0.00in /  0mm 0 W/m2
05:54 55.1 °F /  12.8 °C 53 °F /  11.7 °C 29.99in /  1015.5hPa Calm     92.5% 0.00in /  0mm 0 W/m2
05:59 55.1 °F /  12.8 °C 53.1 °F /  11.7 °C 30.00in /  1015.8hPa Calm     93% 0.00in /  0mm 0 W/m2
06:04 55.1 °F /  12.8 °C 53 °F /  11.7 °C 30.00in /  1015.8hPa Calm     92.8% 0.00in /  0mm 0 W/m2
06:09 55 °F /  12.8 °C 53 °F /  11.7 °C 30.00in /  1015.8hPa Calm     93% 0.00in /  0mm 0 W/m2
06:14 55 °F /  12.8 °C 53 °F /  11.7 °C 30.00in /  1015.8hPa Calm     93% 0.00in /  0mm 0 W/m2
06:19 54.9 °F /  12.7 °C 52.9 °F /  11.6 °C 30.00in /  1015.8hPa Calm     93% 0.00in /  0mm 0 W/m2
06:24 54.8 °F /  12.7 °C 52.8 °F /  11.6 °C 30.00in /  1015.8hPa Calm     93% 0.00in /  0mm 0 W/m2
06:29 54.8 °F /  12.7 °C 52.8 °F /  11.6 °C 30.00in /  1015.8hPa Calm     93% 0.00in /  0mm 5 W/m2
06:34 54.7 °F /  12.6 °C 52.7 °F /  11.5 °C 30.00in /  1015.8hPa Calm     93% 0.00in /  0mm 7 W/m2
06:39 54.7 °F /  12.6 °C 52.7 °F /  11.5 °C 30.01in /  1016.1hPa Calm     93% 0.00in /  0mm 11 W/m2
06:44 54.6 °F /  12.6 °C 52.7 °F /  11.5 °C 30.01in /  1016.1hPa Calm     93% 0.00in /  0mm 12 W/m2
06:49 54.7 °F /  12.6 °C 52.7 °F /  11.5 °C 30.01in /  1016.1hPa Calm     93% 0.00in /  0mm 14 W/m2
06:54 54.7 °F /  12.6 °C 53 °F /  11.7 °C 30.01in /  1016.1hPa Calm     93.9% 0.00in /  0mm 18 W/m2
06:59 54.8 °F /  12.7 °C 53.1 °F /  11.7 °C 30.01in /  1016.1hPa Calm     94% 0.00in /  0mm 19 W/m2
07:04 54.9 °F /  12.7 °C 53.2 °F /  11.8 °C 30.01in /  1016.1hPa Calm     94% 0.00in /  0mm 23 W/m2
07:09 55 °F /  12.8 °C 53.3 °F /  11.8 °C 30.02in /  1016.5hPa Calm     94% 0.00in /  0mm 25 W/m2
07:14 55.1 °F /  12.8 °C 53.4 °F /  11.9 °C 30.02in /  1016.5hPa Calm     94% 0.00in /  0mm 28 W/m2
07:19 55.3 °F /  12.9 °C 53.6 °F /  12 °C 30.02in /  1016.5hPa Calm     94% 0.00in /  0mm 30 W/m2
07:24 55.4 °F /  13 °C 53.7 °F /  12.1 °C 30.02in /  1016.5hPa Calm     94% 0.00in /  0mm 33 W/m2
07:29 55.5 °F /  13.1 °C 53.9 °F /  12.2 °C 30.02in /  1016.5hPa ENE 0.1mph /  0.2km/h 2mph /  3.2km/h 94% 0.00in /  0mm 35 W/m2
07:34 55.7 °F /  13.2 °C 54 °F /  12.2 °C 30.03in /  1016.8hPa Calm   2mph /  3.2km/h 94% 0.00in /  0mm 39 W/m2
07:39 55.9 °F /  13.3 °C 54.2 °F /  12.3 °C 30.03in /  1016.8hPa ENE 0.1mph /  0.2km/h 3mph /  4.8km/h 94% 0.00in /  0mm 42 W/m2
07:44 56.1 °F /  13.4 °C 54.4 °F /  12.4 °C 30.03in /  1016.8hPa Calm   3mph /  4.8km/h 94% 0.00in /  0mm 46 W/m2
07:49 56.3 °F /  13.5 °C 54.6 °F /  12.6 °C 30.03in /  1016.8hPa Calm   3mph /  4.8km/h 94% 0.00in /  0mm 47 W/m2
07:54 56.6 °F /  13.7 °C 54.9 °F /  12.7 °C 30.03in /  1016.8hPa Calm   3mph /  4.8km/h 94% 0.00in /  0mm 58 W/m2
07:59 56.8 °F /  13.8 °C 55.1 °F /  12.8 °C 30.03in /  1016.8hPa NE 0.1mph /  0.2km/h 3mph /  4.8km/h 94% 0.00in /  0mm 58 W/m2
08:00 56.9 °F /  13.8 °C 55.2 °F /  12.9 °C 30.03in /  1016.8hPa Calm   3mph /  4.8km/h 94% 0.00in /  0mm 58 W/m2
08:09 57.4 °F /  14.1 °C 55.7 °F /  13.2 °C 30.03in /  1016.8hPa Calm   1mph /  1.6km/h 94% 0.00in /  0mm 70 W/m2
08:14 57.8 °F /  14.3 °C 55.9 °F /  13.3 °C 30.03in /  1016.8hPa ENE 0.2mph /  0.3km/h 3mph /  4.8km/h 93.6% 0.00in /  0mm 77 W/m2
08:19 58.1 °F /  14.5 °C 56.1 °F /  13.4 °C 30.04in /  1017.2hPa ENE 0.7mph /  1.1km/h 4mph /  6.4km/h 93% 0.00in /  0mm 86 W/m2
08:24 58.5 °F /  14.7 °C 56.2 °F /  13.4 °C 30.04in /  1017.2hPa Calm   4mph /  6.4km/h 91.8% 0.00in /  0mm 93 W/m2
08:29 58.9 °F /  14.9 °C 56.3 °F /  13.5 °C 30.04in /  1017.2hPa Calm   4mph /  6.4km/h 91% 0.00in /  0mm 171 W/m2
08:34 59.2 °F /  15.1 °C 56.4 °F /  13.6 °C 30.04in /  1017.2hPa Calm   4mph /  6.4km/h 90.3% 0.00in /  0mm 315 W/m2
08:39 59.8 °F /  15.4 °C 56.5 °F /  13.6 °C 30.04in /  1017.2hPa Calm   1mph /  1.6km/h 88.8% 0.00in /  0mm 336 W/m2
08:44 60.6 °F /  15.9 °C 56.8 °F /  13.8 °C 30.04in /  1017.2hPa Calm   1mph /  1.6km/h 87.3% 0.00in /  0mm 353 W/m2
08:49 61.5 °F /  16.4 °C 57.4 °F /  14.1 °C 30.04in /  1017.2hPa Calm   1mph /  1.6km/h 86.4% 0.00in /  0mm 371 W/m2
08:54 62.3 °F /  16.8 °C 57.4 °F /  14.1 °C 30.04in /  1017.2hPa Calm   1mph /  1.6km/h 83.8% 0.00in /  0mm 394 W/m2
08:59 63.1 °F /  17.3 °C 57.6 °F /  14.2 °C 30.04in /  1017.2hPa Calm   1mph /  1.6km/h 82.2% 0.00in /  0mm 411 W/m2
09:04 63.8 °F /  17.7 °C 57.7 °F /  14.3 °C 30.04in /  1017.2hPa ENE 0.5mph /  0.8km/h 3mph /  4.8km/h 80.4% 0.00in /  0mm 438 W/m2
09:09 64.3 °F /  17.9 °C 57.3 °F /  14.1 °C 30.04in /  1017.2hPa Calm   3mph /  4.8km/h 78% 0.00in /  0mm 454 W/m2
09:14 64.9 °F /  18.3 °C 57.9 °F /  14.4 °C 30.05in /  1017.5hPa Calm   3mph /  4.8km/h 78% 0.00in /  0mm 461 W/m2
09:19 65.8 °F /  18.8 °C 58.5 °F /  14.7 °C 30.05in /  1017.5hPa Calm   3mph /  4.8km/h 77.4% 0.00in /  0mm 473 W/m2
09:24 66.5 °F /  19.2 °C 58.2 °F /  14.6 °C 30.05in /  1017.5hPa Calm   3mph /  4.8km/h 74.8% 0.00in /  0mm 489 W/m2
09:29 67 °F /  19.4 °C 58.3 °F /  14.6 °C 30.05in /  1017.5hPa ENE 0.9mph /  1.4km/h 5mph /  8km/h 73.7% 0.00in /  0mm 506 W/m2
09:34 67.5 °F /  19.7 °C 58.3 °F /  14.6 °C 30.05in /  1017.5hPa ENE 0.2mph /  0.3km/h 5mph /  8km/h 72.4% 0.00in /  0mm 515 W/m2
09:39 68 °F /  20 °C 58.5 °F /  14.7 °C 30.05in /  1017.5hPa ENE 0.1mph /  0.2km/h 3mph /  4.8km/h 71.8% 0.00in /  0mm 531 W/m2
09:44 68.4 °F /  20.2 °C 58.4 °F /  14.7 °C 30.05in /  1017.5hPa Calm   3mph /  4.8km/h 70.5% 0.00in /  0mm 547 W/m2
09:49 68.6 °F /  20.3 °C 58.6 °F /  14.8 °C 30.05in /  1017.5hPa ENE 0.2mph /  0.3km/h 3mph /  4.8km/h 70.2% 0.00in /  0mm 554 W/m2
09:54 69 °F /  20.6 °C 59.1 °F /  15.1 °C 30.05in /  1017.5hPa ENE 0.2mph /  0.3km/h 3mph /  4.8km/h 70.6% 0.00in /  0mm 568 W/m2
09:59 69.5 °F /  20.8 °C 59 °F /  15 °C 30.06in /  1017.8hPa ENE 0.2mph /  0.3km/h 3mph /  4.8km/h 69.3% 0.00in /  0mm 575 W/m2
10:04 69.9 °F /  21.1 °C 59.4 °F /  15.2 °C 30.05in /  1017.5hPa Calm   3mph /  4.8km/h 69.2% 0.00in /  0mm 585 W/m2
10:09 70.6 °F /  21.4 °C 59.4 °F /  15.2 °C 30.05in /  1017.5hPa ENE 0.9mph /  1.4km/h 6mph /  9.7km/h 67.7% 0.00in /  0mm 594 W/m2
10:14 70.8 °F /  21.6 °C 58.6 °F /  14.8 °C 30.06in /  1017.8hPa ENE 1.4mph /  2.3km/h 6mph /  9.7km/h 65.2% 0.00in /  0mm 608 W/m2
10:19 70.9 °F /  21.6 °C 58.5 °F /  14.7 °C 30.05in /  1017.5hPa Calm   6mph /  9.7km/h 65% 0.00in /  0mm 622 W/m2
10:24 71 °F /  21.7 °C 59.1 °F /  15.1 °C 30.06in /  1017.8hPa ENE 0.2mph /  0.3km/h 6mph /  9.7km/h 66% 0.00in /  0mm 633 W/m2
10:29 71.4 °F /  21.9 °C 59.3 °F /  15.2 °C 30.06in /  1017.8hPa East 0.6mph /  1km/h 6mph /  9.7km/h 65.5% 0.00in /  0mm 636 W/m2
10:32 71.6 °F /  22 °C 59.2 °F /  15.1 °C 30.06in /  1017.8hPa East 0.4mph /  0.6km/h 6mph /  9.7km/h 65% 0.00in /  0mm 638 W/m2
11:00 74 °F /  23.3 °C 60.2 °F /  15.7 °C 30.06in /  1017.8hPa Calm   4mph /  6.4km/h 62% 0.00in /  0mm 663 W/m2
11:30 75.7 °F /  24.3 °C 59.4 °F /  15.2 °C 30.05in /  1017.5hPa Calm   4mph /  6.4km/h 57% 0.00in /  0mm 738 W/m2
12:04 75.5 °F /  24.2 °C 56 °F /  13.3 °C 30.05in /  1017.5hPa Calm   4mph /  6.4km/h 50.8% 0.00in /  0mm 738 W/m2
12:09 75.3 °F /  24.1 °C 55.9 °F /  13.3 °C 30.05in /  1017.5hPa ENE 0.2mph /  0.3km/h 3mph /  4.8km/h 51% 0.00in /  0mm 98 W/m2
12:14 75.1 °F /  23.9 °C 55.1 °F /  12.8 °C 30.05in /  1017.5hPa Calm   3mph /  4.8km/h 49.8% 0.00in /  0mm 97 W/m2
12:19 75.1 °F /  23.9 °C 55.8 °F /  13.2 °C 30.05in /  1017.5hPa Calm   3mph /  4.8km/h 51.1% 0.00in /  0mm 132 W/m2
12:24 75.2 °F /  24 °C 55.8 °F /  13.2 °C 30.05in /  1017.5hPa ENE 0.8mph /  1.3km/h 5mph /  8km/h 50.8% 0.00in /  0mm 146 W/m2
12:29 75.3 °F /  24.1 °C 55.4 °F /  13 °C 30.05in /  1017.5hPa North 0.3mph /  0.5km/h 5mph /  8km/h 49.9% 0.00in /  0mm 160 W/m2
12:34 75.5 °F /  24.2 °C 56.3 °F /  13.5 °C 30.04in /  1017.2hPa North 0.1mph /  0.2km/h 5mph /  8km/h 51.3% 0.00in /  0mm 104 W/m2
12:39 75.7 °F /  24.3 °C 54.8 °F /  12.7 °C 30.04in /  1017.2hPa North 0.1mph /  0.2km/h 3mph /  4.8km/h 48.3% 0.00in /  0mm 128 W/m2
12:44 75.7 °F /  24.3 °C 55.2 °F /  12.9 °C 30.04in /  1017.2hPa North 0.3mph /  0.5km/h 3mph /  4.8km/h 49.1% 0.00in /  0mm 121 W/m2
12:49 75.7 °F /  24.3 °C 56.1 °F /  13.4 °C 30.04in /  1017.2hPa North 0.3mph /  0.5km/h 4mph /  6.4km/h 50.5% 0.00in /  0mm 125 W/m2
12:54 75.9 °F /  24.4 °C 55.5 °F /  13.1 °C 30.04in /  1017.2hPa North 0.4mph /  0.6km/h 4mph /  6.4km/h 49.1% 0.00in /  0mm 135 W/m2
12:59 76.1 °F /  24.5 °C 55.6 °F /  13.1 °C 30.04in /  1017.2hPa NNW 0.1mph /  0.2km/h 4mph /  6.4km/h 49.1% 0.00in /  0mm 404 W/m2
13:04 76.4 °F /  24.7 °C 55.7 °F /  13.2 °C 30.04in /  1017.2hPa North 0.2mph /  0.3km/h 4mph /  6.4km/h 48.7% 0.00in /  0mm 304 W/m2
13:09 76.6 °F /  24.8 °C 55.9 °F /  13.3 °C 30.04in /  1017.2hPa North 0.2mph /  0.3km/h 3mph /  4.8km/h 48.9% 0.00in /  0mm 130 W/m2
13:14 76.7 °F /  24.8 °C 56.3 °F /  13.5 °C 30.04in /  1017.2hPa Calm   3mph /  4.8km/h 49.4% 0.00in /  0mm 107 W/m2
13:19 76.9 °F /  24.9 °C 57 °F /  13.9 °C 30.04in /  1017.2hPa North 0.4mph /  0.6km/h 4mph /  6.4km/h 50.3% 0.00in /  0mm 97 W/m2
13:24 77 °F /  25 °C 55.9 °F /  13.3 °C 30.04in /  1017.2hPa North 0.3mph /  0.5km/h 4mph /  6.4km/h 48.1% 0.00in /  0mm 127 W/m2
13:29 77 °F /  25 °C 55.7 °F /  13.2 °C 30.04in /  1017.2hPa North 0.1mph /  0.2km/h 4mph /  6.4km/h 47.8% 0.00in /  0mm 151 W/m2
13:34 77 °F /  25 °C 55.7 °F /  13.2 °C 30.04in /  1017.2hPa Calm   4mph /  6.4km/h 47.8% 0.00in /  0mm 151 W/m2
13:39 77 °F /  25 °C 55.6 °F /  13.1 °C 30.04in /  1017.2hPa ENE 1.3mph /  2.1km/h 5mph /  8km/h 47.5% 0.00in /  0mm 204 W/m2
13:44 77 °F /  25 °C 55.9 °F /  13.3 °C 30.04in /  1017.2hPa ENE 0.1mph /  0.2km/h 5mph /  8km/h 48.1% 0.00in /  0mm 91 W/m2
13:49 77 °F /  25 °C 55.6 °F /  13.1 °C 30.04in /  1017.2hPa East 0.1mph /  0.2km/h 5mph /  8km/h 47.6% 0.00in /  0mm 90 W/m2
13:54 77 °F /  25 °C 56.1 °F /  13.4 °C 30.04in /  1017.2hPa East 2.2mph /  3.5km/h 7mph /  11.3km/h 48.4% 0.00in /  0mm 90 W/m2
13:59 77.1 °F /  25.1 °C 56.5 °F /  13.6 °C 30.04in /  1017.2hPa East 0.1mph /  0.2km/h 7mph /  11.3km/h 48.9% 0.00in /  0mm 90 W/m2
14:04 77.3 °F /  25.2 °C 57.5 °F /  14.2 °C 30.04in /  1017.2hPa NNE 0.6mph /  1km/h 7mph /  11.3km/h 50.5% 0.00in /  0mm 100 W/m2
14:09 77.4 °F /  25.2 °C 58 °F /  14.4 °C 30.04in /  1017.2hPa East 0.2mph /  0.3km/h 3mph /  4.8km/h 51.2% 0.00in /  0mm 95 W/m2
14:14 77.5 °F /  25.3 °C 57.1 °F /  13.9 °C 30.04in /  1017.2hPa ENE 0.7mph /  1.1km/h 4mph /  6.4km/h 49.3% 0.00in /  0mm 204 W/m2
14:19 77.5 °F /  25.3 °C 58 °F /  14.4 °C 30.04in /  1017.2hPa ENE 0.1mph /  0.2km/h 4mph /  6.4km/h 51% 0.00in /  0mm 738 W/m2
14:24 77.8 °F /  25.4 °C 57.8 °F /  14.3 °C 30.04in /  1017.2hPa ENE 0.6mph /  1km/h 4mph /  6.4km/h 50.2% 0.00in /  0mm 740 W/m2
14:29 78.2 °F /  25.7 °C 58.7 °F /  14.8 °C 30.04in /  1017.2hPa Calm   4mph /  6.4km/h 51.3% 0.00in /  0mm 735 W/m2
14:34 78.6 °F /  25.9 °C 58.7 °F /  14.8 °C 30.04in /  1017.2hPa Calm   4mph /  6.4km/h 50.5% 0.00in /  0mm 728 W/m2
14:39 78.9 °F /  26.1 °C 58.2 °F /  14.6 °C 30.04in /  1017.2hPa ENE 0.1mph /  0.2km/h 3mph /  4.8km/h 49.1% 0.00in /  0mm 719 W/m2
14:44 79.2 °F /  26.2 °C 59.4 °F /  15.2 °C 30.04in /  1017.2hPa ENE 0.5mph /  0.8km/h 3mph /  4.8km/h 50.7% 0.00in /  0mm 712 W/m2
14:49 79.6 °F /  26.4 °C 57.8 °F /  14.3 °C 30.03in /  1016.8hPa Calm   3mph /  4.8km/h 47.4% 0.00in /  0mm 703 W/m2
14:54 80 °F /  26.7 °C 58.7 °F /  14.8 °C 30.03in /  1016.8hPa NE 0.6mph /  1km/h 3mph /  4.8km/h 48.3% 0.00in /  0mm 694 W/m2
14:59 80.4 °F /  26.9 °C 59.8 °F /  15.4 °C 30.03in /  1016.8hPa NNE 1.3mph /  2.1km/h 4mph /  6.4km/h 49.5% 0.00in /  0mm 682 W/m2
15:04 80.7 °F /  27.1 °C 60.1 °F /  15.6 °C 30.03in /  1016.8hPa North 1.3mph /  2.1km/h 4mph /  6.4km/h 49.5% 0.00in /  0mm 671 W/m2
15:09 81 °F /  27.2 °C 59.9 °F /  15.5 °C 30.03in /  1016.8hPa NNW 0.8mph /  1.3km/h 5mph /  8km/h 48.6% 0.00in /  0mm 657 W/m2
15:14 81.3 °F /  27.4 °C 60.1 °F /  15.6 °C 30.03in /  1016.8hPa NW 0.1mph /  0.2km/h 5mph /  8km/h 48.6% 0.00in /  0mm 647 W/m2
15:19 81.8 °F /  27.7 °C 60.2 °F /  15.7 °C 30.03in /  1016.8hPa Calm   5mph /  8km/h 48% 0.00in /  0mm 633 W/m2
15:24 82.2 °F /  27.9 °C 59.9 °F /  15.5 °C 30.02in /  1016.5hPa NW 0.1mph /  0.2km/h 5mph /  8km/h 46.9% 0.00in /  0mm 621 W/m2
15:29 82.7 °F /  28.2 °C 60.4 °F /  15.8 °C 30.03in /  1016.8hPa NW 0.4mph /  0.6km/h 5mph /  8km/h 47% 0.00in /  0mm 613 W/m2
15:34 83.1 °F /  28.4 °C 60.1 °F /  15.6 °C 30.03in /  1016.8hPa NW 0.4mph /  0.6km/h 5mph /  8km/h 45.9% 0.00in /  0mm 601 W/m2
15:39 83.1 °F /  28.4 °C 58.8 °F /  14.9 °C 30.03in /  1016.8hPa Calm   2mph /  3.2km/h 43.7% 0.00in /  0mm 584 W/m2
15:44 83.2 °F /  28.4 °C 59.2 °F /  15.1 °C 30.03in /  1016.8hPa Calm   2mph /  3.2km/h 44.3% 0.00in /  0mm 564 W/m2
15:49 83.2 °F /  28.4 °C 58.7 °F /  14.8 °C 30.03in /  1016.8hPa NW 0.2mph /  0.3km/h 3mph /  4.8km/h 43.5% 0.00in /  0mm 552 W/m2
15:54 83.1 °F /  28.4 °C 59 °F /  15 °C 30.03in /  1016.8hPa NW 0.2mph /  0.3km/h 3mph /  4.8km/h 44.1% 0.00in /  0mm 536 W/m2
15:58 83 °F /  28.3 °C 59 °F /  15 °C 30.03in /  1016.8hPa Calm   3mph /  4.8km/h 44.3% 0.00in /  0mm 522 W/m2
16:04 82.1 °F /  27.8 °C 58.7 °F /  14.8 °C 30.03in /  1016.8hPa Calm     45% 0.00in /  0mm 86 W/m2
16:09 81.8 °F /  27.7 °C 58.9 °F /  14.9 °C 30.03in /  1016.8hPa Calm     45.8% 0.00in /  0mm 84 W/m2
16:14 81.5 °F /  27.5 °C 58.8 °F /  14.9 °C 30.03in /  1016.8hPa Calm     46.2% 0.00in /  0mm 83 W/m2
16:19 81.1 °F /  27.3 °C 58.7 °F /  14.8 °C 30.03in /  1016.8hPa Calm     46.5% 0.00in /  0mm 81 W/m2
16:24 80.9 °F /  27.2 °C 59.4 °F /  15.2 °C 30.02in /  1016.5hPa NW 1.3mph /  2.1km/h 4mph /  6.4km/h 48.2% 0.00in /  0mm 79 W/m2
16:29 80.6 °F /  27 °C 58.9 °F /  14.9 °C 30.02in /  1016.5hPa NW 0.2mph /  0.3km/h 4mph /  6.4km/h 47.7% 0.00in /  0mm 77 W/m2
16:34 80.4 °F /  26.9 °C 59.7 °F /  15.4 °C 30.02in /  1016.5hPa NW 0.3mph /  0.5km/h 4mph /  6.4km/h 49.3% 0.00in /  0mm 77 W/m2
16:39 80.3 °F /  26.8 °C 59.4 °F /  15.2 °C 30.03in /  1016.8hPa NW 0.7mph /  1.1km/h 3mph /  4.8km/h 49% 0.00in /  0mm 77 W/m2
16:44 80.1 °F /  26.7 °C 58.9 °F /  14.9 °C 30.03in /  1016.8hPa Calm   3mph /  4.8km/h 48.4% 0.00in /  0mm 76 W/m2
16:49 79.9 °F /  26.6 °C 58.6 °F /  14.8 °C 30.03in /  1016.8hPa NW 0.1mph /  0.2km/h 3mph /  4.8km/h 48.1% 0.00in /  0mm 74 W/m2
16:54 79.7 °F /  26.5 °C 59.1 °F /  15.1 °C 30.03in /  1016.8hPa NW 1mph /  1.6km/h 4mph /  6.4km/h 49.3% 0.00in /  0mm 72 W/m2
16:59 79.6 °F /  26.4 °C 59.2 °F /  15.1 °C 30.03in /  1016.8hPa NW 0.1mph /  0.2km/h 4mph /  6.4km/h 49.7% 0.00in /  0mm 72 W/m2
17:04 79.5 °F /  26.4 °C 59.1 °F /  15.1 °C 30.03in /  1016.8hPa Calm   4mph /  6.4km/h 49.6% 0.00in /  0mm 70 W/m2
17:09 79.5 °F /  26.4 °C 58.9 °F /  14.9 °C 30.03in /  1016.8hPa Calm     49.4% 0.00in /  0mm 69 W/m2
17:14 79.4 °F /  26.3 °C 59.4 °F /  15.2 °C 30.03in /  1016.8hPa NW 0.8mph /  1.3km/h 4mph /  6.4km/h 50.5% 0.00in /  0mm 67 W/m2
17:19 79.4 °F /  26.3 °C 60.1 °F /  15.6 °C 30.03in /  1016.8hPa NW 0.4mph /  0.6km/h 4mph /  6.4km/h 51.6% 0.00in /  0mm 65 W/m2
17:24 79.3 °F /  26.3 °C 60.1 °F /  15.6 °C 30.04in /  1017.2hPa Calm   4mph /  6.4km/h 51.9% 0.00in /  0mm 63 W/m2
17:29 79.3 °F /  26.3 °C 60.1 °F /  15.6 °C 30.04in /  1017.2hPa Calm   4mph /  6.4km/h 52% 0.00in /  0mm 62 W/m2
17:34 79.2 °F /  26.2 °C 60.2 °F /  15.7 °C 30.04in /  1017.2hPa NW 0.1mph /  0.2km/h 4mph /  6.4km/h 52.2% 0.00in /  0mm 60 W/m2
17:39 79 °F /  26.1 °C 59.5 °F /  15.3 °C 30.04in /  1017.2hPa NW 0.1mph /  0.2km/h 2mph /  3.2km/h 51.3% 0.00in /  0mm 58 W/m2
17:44 78.9 °F /  26.1 °C 59.8 °F /  15.4 °C 30.04in /  1017.2hPa Calm   2mph /  3.2km/h 52% 0.00in /  0mm 54 W/m2
17:49 78.8 °F /  26 °C 59.8 °F /  15.4 °C 30.04in /  1017.2hPa Calm   2mph /  3.2km/h 52.2% 0.00in /  0mm 53 W/m2
17:54 78.7 °F /  25.9 °C 59.6 °F /  15.3 °C 30.04in /  1017.2hPa Calm   2mph /  3.2km/h 52% 0.00in /  0mm 49 W/m2
17:59 78.6 °F /  25.9 °C 59.5 °F /  15.3 °C 30.04in /  1017.2hPa Calm   2mph /  3.2km/h 52% 0.00in /  0mm 46 W/m2
18:04 78.5 °F /  25.8 °C 59.7 °F /  15.4 °C 30.04in /  1017.2hPa Calm   2mph /  3.2km/h 52.6% 0.00in /  0mm 42 W/m2
18:09 78.3 °F /  25.7 °C 59.8 °F /  15.4 °C 30.05in /  1017.5hPa Calm     53% 0.00in /  0mm 40 W/m2
18:14 78.2 °F /  25.7 °C 59.7 °F /  15.4 °C 30.05in /  1017.5hPa Calm     53% 0.00in /  0mm 37 W/m2
18:19 78 °F /  25.6 °C 59.5 °F /  15.3 °C 30.05in /  1017.5hPa Calm     53% 0.00in /  0mm 35 W/m2
18:24 77.9 °F /  25.5 °C 59.6 °F /  15.3 °C 30.05in /  1017.5hPa Calm     53.4% 0.00in /  0mm 32 W/m2
18:29 77.8 °F /  25.4 °C 59.8 °F /  15.4 °C 30.05in /  1017.5hPa Calm     54% 0.00in /  0mm 28 W/m2
18:34 77.6 °F /  25.3 °C 59.6 °F /  15.3 °C 30.05in /  1017.5hPa Calm     54% 0.00in /  0mm 25 W/m2
18:39 77.4 °F /  25.2 °C 59.5 °F /  15.3 °C 30.05in /  1017.5hPa Calm     54% 0.00in /  0mm 23 W/m2
18:44 77.2 °F /  25.1 °C 59.7 °F /  15.4 °C 30.05in /  1017.5hPa Calm     54.9% 0.00in /  0mm 18 W/m2
18:49 76.9 °F /  24.9 °C 59.6 °F /  15.3 °C 30.05in /  1017.5hPa Calm     55% 0.00in /  0mm 14 W/m2
18:54 76.7 °F /  24.8 °C 59.3 °F /  15.2 °C 30.05in /  1017.5hPa Calm     55% 0.00in /  0mm 12 W/m2
18:59 76.5 °F /  24.7 °C 59.8 °F /  15.4 °C 30.05in /  1017.5hPa Calm     56.3% 0.00in /  0mm 9 W/m2
19:04 76.2 °F /  24.6 °C 60.3 °F /  15.7 °C 30.05in /  1017.5hPa Calm     58% 0.00in /  0mm 5 W/m2
19:09 75.9 °F /  24.4 °C 60.4 °F /  15.8 °C 30.05in /  1017.5hPa Calm     58.7% 0.00in /  0mm 0 W/m2
19:14 75.7 °F /  24.3 °C 61.7 °F /  16.5 °C 30.06in /  1017.8hPa Calm     62% 0.00in /  0mm 0 W/m2
19:19 75.3 °F /  24.1 °C 62.6 °F /  17 °C 30.06in /  1017.8hPa Calm     64.7% 0.00in /  0mm 0 W/m2
19:24 75 °F /  23.9 °C 62.9 °F /  17.2 °C 30.06in /  1017.8hPa Calm     66% 0.00in /  0mm 0 W/m2
19:29 74.7 °F /  23.7 °C 63 °F /  17.2 °C 30.06in /  1017.8hPa Calm     67% 0.00in /  0mm 0 W/m2
19:34 74.3 °F /  23.5 °C 62.8 °F /  17.1 °C 30.06in /  1017.8hPa Calm     67.3% 0.00in /  0mm 0 W/m2
19:39 74 °F /  23.3 °C 62.7 °F /  17.1 °C 30.06in /  1017.8hPa Calm     68% 0.00in /  0mm 0 W/m2
19:44 73.6 °F /  23.1 °C 62.6 °F /  17 °C 30.06in /  1017.8hPa Calm     68.6% 0.00in /  0mm 0 W/m2
19:49 73.1 °F /  22.8 °C 62.8 °F /  17.1 °C 30.06in /  1017.8hPa Calm     70% 0.00in /  0mm 0 W/m2
19:54 72.7 °F /  22.6 °C 62.6 °F /  17 °C 30.06in /  1017.8hPa Calm     70.4% 0.00in /  0mm 0 W/m2
19:59 72.4 °F /  22.4 °C 62.2 °F /  16.8 °C 30.06in /  1017.8hPa Calm     70.5% 0.00in /  0mm 0 W/m2
20:09 71.7 °F /  22.1 °C 62.6 °F /  17 °C 30.06in /  1017.8hPa Calm     73.1% 0.00in /  0mm 0 W/m2
20:14 71.4 °F /  21.9 °C 62.7 °F /  17.1 °C 30.07in /  1018.2hPa Calm     74% 0.00in /  0mm 0 W/m2
20:19 71.1 °F /  21.7 °C 62.4 °F /  16.9 °C 30.07in /  1018.2hPa Calm     74% 0.00in /  0mm 0 W/m2
20:24 70.8 °F /  21.6 °C 62.4 °F /  16.9 °C 30.07in /  1018.2hPa Calm     74.8% 0.00in /  0mm 0 W/m2
20:29 70.5 °F /  21.4 °C 62.4 °F /  16.9 °C 30.08in /  1018.5hPa Calm     75.6% 0.00in /  0mm 0 W/m2
20:34 70.2 °F /  21.2 °C 62.4 °F /  16.9 °C 30.08in /  1018.5hPa Calm     76.5% 0.00in /  0mm 0 W/m2
20:39 69.8 °F /  21 °C 62.2 °F /  16.8 °C 30.08in /  1018.5hPa Calm     77% 0.00in /  0mm 0 W/m2
20:44 69.3 °F /  20.7 °C 62.2 °F /  16.8 °C 30.08in /  1018.5hPa Calm     78% 0.00in /  0mm 0 W/m2
20:49 69 °F /  20.6 °C 61.9 °F /  16.6 °C 30.08in /  1018.5hPa Calm     78.1% 0.00in /  0mm 0 W/m2
20:54 68.7 °F /  20.4 °C 61.9 °F /  16.6 °C 30.08in /  1018.5hPa Calm     79% 0.00in /  0mm 0 W/m2
20:59 68.5 °F /  20.3 °C 62 °F /  16.7 °C 30.08in /  1018.5hPa Calm     79.8% 0.00in /  0mm 0 W/m2
21:04 68.2 °F /  20.1 °C 61.9 °F /  16.6 °C 30.09in /  1018.8hPa Calm     80.2% 0.00in /  0mm 0 W/m2
21:09 68 °F /  20 °C 62 °F /  16.7 °C 30.09in /  1018.8hPa Calm     81% 0.00in /  0mm 0 W/m2
21:14 67.7 °F /  19.8 °C 61.7 °F /  16.5 °C 30.09in /  1018.8hPa Calm     81% 0.00in /  0mm 0 W/m2
21:19 67.5 °F /  19.7 °C 61.5 °F /  16.4 °C 30.09in /  1018.8hPa Calm     81.1% 0.00in /  0mm 0 W/m2
21:24 67.3 °F /  19.6 °C 61.6 °F /  16.4 °C 30.09in /  1018.8hPa Calm     82% 0.00in /  0mm 0 W/m2
21:29 67.2 °F /  19.6 °C 61.5 °F /  16.4 °C 30.09in /  1018.8hPa Calm     82% 0.00in /  0mm 0 W/m2
21:34 67 °F /  19.4 °C 61.4 °F /  16.3 °C 30.09in /  1018.8hPa Calm     82% 0.00in /  0mm 0 W/m2
21:39 66.9 °F /  19.4 °C 61.3 °F /  16.3 °C 30.09in /  1018.8hPa Calm     82.2% 0.00in /  0mm 0 W/m2
21:44 66.8 °F /  19.3 °C 61.5 °F /  16.4 °C 30.09in /  1018.8hPa Calm     83% 0.00in /  0mm 0 W/m2
21:49 66.7 °F /  19.3 °C 61.3 °F /  16.3 °C 30.10in /  1019.2hPa Calm     83% 0.00in /  0mm 0 W/m2
21:54 66.6 °F /  19.2 °C 61.2 °F /  16.2 °C 30.10in /  1019.2hPa Calm     83% 0.00in /  0mm 0 W/m2
21:59 66.5 °F /  19.2 °C 61.4 °F /  16.3 °C 30.10in /  1019.2hPa Calm     83.6% 0.00in /  0mm 0 W/m2
22:04 66.3 °F /  19.1 °C 61.4 °F /  16.3 °C 30.10in /  1019.2hPa Calm     84% 0.00in /  0mm 0 W/m2
22:09 66.3 °F /  19.1 °C 61.3 °F /  16.3 °C 30.10in /  1019.2hPa Calm     84% 0.00in /  0mm 0 W/m2
22:14 66.2 °F /  19 °C 61.4 °F /  16.3 °C 30.10in /  1019.2hPa Calm     84.6% 0.00in /  0mm 0 W/m2
22:19 66 °F /  18.9 °C 61.4 °F /  16.3 °C 30.10in /  1019.2hPa Calm     85% 0.00in /  0mm 0 W/m2
22:24 65.9 °F /  18.8 °C 61.3 °F /  16.3 °C 30.10in /  1019.2hPa Calm     85% 0.00in /  0mm 0 W/m2
22:29 65.8 °F /  18.8 °C 61.1 °F /  16.2 °C 30.10in /  1019.2hPa Calm     85% 0.00in /  0mm 0 W/m2
22:34 65.6 °F /  18.7 °C 61 °F /  16.1 °C 30.10in /  1019.2hPa Calm     85% 0.00in /  0mm 0 W/m2
22:39 65.5 °F /  18.6 °C 60.9 °F /  16.1 °C 30.10in /  1019.2hPa Calm     85% 0.00in /  0mm 0 W/m2
22:44 65.4 °F /  18.6 °C 61 °F /  16.1 °C 30.10in /  1019.2hPa Calm     85.7% 0.00in /  0mm 0 W/m2
22:49 65.2 °F /  18.4 °C 61 °F /  16.1 °C 30.10in /  1019.2hPa Calm     86% 0.00in /  0mm 0 W/m2
22:54 65.1 °F /  18.4 °C 60.8 °F /  16 °C 30.10in /  1019.2hPa Calm     86% 0.00in /  0mm 0 W/m2
22:59 64.9 °F /  18.3 °C 60.7 °F /  15.9 °C 30.10in /  1019.2hPa Calm     86% 0.00in /  0mm 0 W/m2
23:04 64.8 °F /  18.2 °C 60.7 °F /  15.9 °C 30.11in /  1019.5hPa Calm     86.6% 0.00in /  0mm 0 W/m2
23:09 64.8 °F /  18.2 °C 60.8 °F /  16 °C 30.11in /  1019.5hPa Calm     87% 0.00in /  0mm 0 W/m2
23:14 64.7 °F /  18.2 °C 60.8 °F /  16 °C 30.11in /  1019.5hPa Calm     87% 0.00in /  0mm 0 W/m2
23:19 64.7 °F /  18.2 °C 61 °F /  16.1 °C 30.11in /  1019.5hPa Calm     87.7% 0.00in /  0mm 0 W/m2
23:24 64.7 °F /  18.2 °C 61.1 °F /  16.2 °C 30.11in /  1019.5hPa Calm     88% 0.00in /  0mm 0 W/m2
23:29 64.7 °F /  18.2 °C 61.1 °F /  16.2 °C 30.11in /  1019.5hPa Calm     88% 0.00in /  0mm 0 W/m2
23:34 64.7 °F /  18.2 °C 61.1 °F /  16.2 °C 30.11in /  1019.5hPa Calm     88% 0.00in /  0mm 0 W/m2
23:39 64.7 °F /  18.2 °C 61.1 °F /  16.2 °C 30.11in /  1019.5hPa Calm     88% 0.00in /  0mm 0 W/m2
23:44 64.6 °F /  18.1 °C 61 °F /  16.1 °C 30.11in /  1019.5hPa Calm     88% 0.00in /  0mm 0 W/m2
23:49 64.6 °F /  18.1 °C 61 °F /  16.1 °C 30.12in /  1019.9hPa Calm     88% 0.00in /  0mm 0 W/m2
23:54 64.5 °F /  18.1 °C 60.9 °F /  16.1 °C 30.12in /  1019.9hPa Calm     88% 0.00in /  0mm 0 W/m2
23:59 64.4 °F /  18 °C 60.8 °F /  16 °C 30.12in /  1019.9hPa Calm     88% 0.00in /  0mm 0 W/m2
Hartford County Weather
Compliments of Weather Underground - 2 mb